Terminal Aerodrome Forecast
Issued by NWS

Home | Current Version | Previous Version | Graphics & Text | Print | Product List | Glossary On
Versions: 1 2 3 4 5 6 7 8 9 10 11 12 13 14 15 16 17 18 19 20 21 22 23 24 25 26 27
000
FTUS43 KABR 191900 AAA
TAFATY
TAF AMD
KATY 191913Z 1919/2018 23015G21KT P6SM BKN150
     FM192100 25011KT P6SM SCT150
     FM200000 25007KT P6SM SCT250=

USA.gov is the U.S. government's official web portal to all federal, state and local government web resources and services.